Time;durP1;ratioP1;P1;durP2;ratioP2;P2;SDS_P1;SDS_P2;PMS_P1;PMS_P2;Temp;Humidity;BMP_temperature;BMP_pressure;BME280_temperature;BME280_humidity;BME280_pressure;Samples;Min_cycle;Max_cycle;Signal;HPM_P1;HPM_P2
2022/08/05 00:00:13;;;;;;;14.23;3.92;;;;;;;21.90;100.00;96539.56;4968489;28;20046;-74
2022/08/05 00:02:39;;;;;;;9.75;3.70;;;;;;;21.70;100.00;96549.94;4973083;28;20049;-74
2022/08/05 00:05:05;;;;;;;11.65;3.85;;;;;;;21.65;100.00;96552.81;4973892;28;20035;-74
2022/08/05 00:07:30;;;;;;;8.57;3.63;;;;;;;21.53;100.00;96560.00;4958902;28;20041;-73
2022/08/05 00:09:55;;;;;;;10.07;4.60;;;;;;;21.34;100.00;96546.66;4973500;28;20551;-74
2022/08/05 00:12:21;;;;;;;9.38;4.55;;;;;;;21.44;100.00;96531.94;4975909;28;20452;-74
2022/08/05 00:14:46;;;;;;;11.90;4.45;;;;;;;21.48;100.00;96484.75;4974869;28;20102;-73
2022/08/05 00:17:12;;;;;;;11.70;4.38;;;;;;;21.61;100.00;96444.88;4974238;28;20034;-73
2022/08/05 00:19:37;;;;;;;7.88;4.72;;;;;;;21.13;100.00;96422.03;4973996;28;20039;-74
2022/08/05 00:22:03;;;;;;;10.18;5.00;;;;;;;20.63;100.00;96353.59;4973494;28;20101;-73
2022/08/05 00:24:29;;;;;;;9.43;4.25;;;;;;;20.46;100.00;96294.53;4973945;28;20047;-73
2022/08/05 00:26:54;;;;;;;10.43;4.60;;;;;;;20.40;100.00;96286.84;4974747;28;20142;-73
2022/08/05 00:29:20;;;;;;;10.32;5.30;;;;;;;20.40;100.00;96322.16;4955029;28;20125;-73
2022/08/05 00:31:46;;;;;;;11.30;6.00;;;;;;;20.40;100.00;96339.28;4950984;28;20053;-73
2022/08/05 00:34:11;;;;;;;8.38;5.32;;;;;;;20.54;100.00;96340.00;4972698;28;20117;-73
2022/08/05 00:36:37;;;;;;;11.40;5.50;;;;;;;20.54;100.00;96328.28;4957477;28;20515;-73
2022/08/05 00:39:03;;;;;;;12.52;5.30;;;;;;;20.41;100.00;96315.63;4972955;28;20038;-73
2022/08/05 00:41:30;;;;;;;9.88;5.28;;;;;;;20.37;100.00;96326.28;4958718;28;20034;-73
2022/08/05 00:43:56;;;;;;;9.60;5.18;;;;;;;19.94;100.00;96337.78;4972656;28;20034;-73
2022/08/05 00:46:22;;;;;;;13.60;5.47;;;;;;;19.81;100.00;96338.66;4974653;28;20042;-73
2022/08/05 00:48:47;;;;;;;11.85;4.90;;;;;;;19.79;100.00;96340.88;4972609;28;20923;-73
2022/08/05 00:51:13;;;;;;;11.98;5.60;;;;;;;19.86;100.00;96335.00;4957430;28;20053;-73
2022/08/05 00:53:38;;;;;;;10.85;5.20;;;;;;;19.88;100.00;96336.28;4975671;28;20504;-73
2022/08/05 00:56:04;;;;;;;12.52;5.32;;;;;;;19.91;100.00;96316.66;4956886;28;20045;-73
2022/08/05 00:58:30;;;;;;;10.55;5.28;;;;;;;20.07;100.00;96319.78;4972553;28;20045;-73
2022/08/05 01:00:56;;;;;;;12.25;5.75;;;;;;;20.22;100.00;96316.63;4970485;28;20057;-73
2022/08/05 01:03:23;;;;;;;8.00;5.30;;;;;;;20.30;100.00;96324.03;4975419;28;20409;-73
2022/08/05 01:05:49;;;;;;;8.82;5.53;;;;;;;20.33;100.00;96321.81;4969934;28;20348;-73
2022/08/05 01:08:15;;;;;;;10.77;5.22;;;;;;;20.35;100.00;96317.66;4974434;28;20463;-73
2022/08/05 01:10:45;;;;;;;13.95;5.63;;;;;;;20.12;100.00;96300.63;4971223;28;20030;-73
2022/08/05 01:13:30;;;;;;;10.98;5.90;;;;;;;20.27;100.00;96311.09;4954939;28;20336;-73
2022/08/05 01:15:59;;;;;;;12.27;5.47;;;;;;;20.24;100.00;96309.00;4954709;28;20464;-73
2022/08/05 01:18:32;;;;;;;11.02;4.78;;;;;;;20.01;100.00;96299.31;4972448;28;20034;-73
2022/08/05 01:20:57;;;;;;;11.68;4.85;;;;;;;19.93;100.00;96291.94;4973757;28;20066;-73
2022/08/05 01:23:28;;;;;;;11.50;4.82;;;;;;;19.97;100.00;96307.28;4973487;28;20352;-73
2022/08/05 01:26:09;;;;;;;8.98;4.40;;;;;;;19.95;100.00;96311.41;4971958;28;20683;-73
2022/08/05 01:28:42;;;;;;;8.57;4.80;;;;;;;19.75;100.00;96316.25;4973927;28;20050;-73
2022/08/05 01:31:18;;;;;;;7.85;4.47;;;;;;;19.88;100.00;96302.91;4971744;28;20055;-73
2022/08/05 01:34:11;;;;;;;8.48;4.40;;;;;;;19.87;100.00;96293.16;4972886;28;20034;-73
2022/08/05 01:36:48;;;;;;;12.75;5.28;;;;;;;19.76;100.00;96323.28;4956240;28;20046;-73
2022/08/05 01:39:15;;;;;;;9.75;4.70;;;;;;;19.45;100.00;96322.41;4971539;28;20042;-73
2022/08/05 01:41:42;;;;;;;8.63;5.03;;;;;;;19.40;100.00;96322.53;4973600;28;20070;-73
2022/08/05 01:44:09;;;;;;;7.95;4.97;;;;;;;19.15;100.00;96337.50;4948476;28;20130;-73
2022/08/05 01:46:35;;;;;;;10.13;5.00;;;;;;;19.07;100.00;96325.47;4957376;28;20113;-73
2022/08/05 01:49:03;;;;;;;11.30;5.13;;;;;;;19.20;100.00;96321.09;4971321;28;20591;-73
2022/08/05 01:51:35;;;;;;;8.80;5.25;;;;;;;19.15;100.00;96305.75;4972933;28;20462;-73
2022/08/05 01:54:02;;;;;;;12.13;5.18;;;;;;;19.23;100.00;96306.13;4956039;28;20480;-73
2022/08/05 01:56:35;;;;;;;9.38;5.43;;;;;;;19.17;100.00;96292.69;4972276;28;20392;-73
2022/08/05 01:59:05;;;;;;;14.38;5.20;;;;;;;19.04;100.00;96300.88;4972780;28;20050;-73
2022/08/05 02:01:33;;;;;;;11.10;6.03;;;;;;;19.11;100.00;96293.09;4954604;28;20071;-73
2022/08/05 02:04:00;;;;;;;10.63;5.22;;;;;;;19.24;100.00;96292.25;4954727;28;20039;-73
2022/08/05 02:06:25;;;;;;;14.48;5.72;;;;;;;19.37;100.00;96274.31;4972815;28;20491;-73
2022/08/05 02:08:52;;;;;;;8.52;4.90;;;;;;;19.57;100.00;96262.97;4949576;28;20042;-73
2022/08/05 02:11:19;;;;;;;11.65;5.40;;;;;;;19.68;100.00;96269.75;4972885;28;20038;-73
2022/08/05 02:13:53;;;;;;;9.65;5.40;;;;;;;19.54;100.00;96260.88;4969955;28;20049;-73
2022/08/05 02:16:46;;;;;;;9.73;5.30;;;;;;;19.66;100.00;96277.41;4971781;28;20045;-73
2022/08/05 02:19:19;;;;;;;7.97;5.13;;;;;;;19.74;100.00;96279.38;4972104;28;20046;-73
2022/08/05 02:21:53;;;;;;;12.35;5.45;;;;;;;19.75;100.00;96288.31;4972309;28;20429;-73
2022/08/05 02:24:22;;;;;;;13.75;5.60;;;;;;;19.56;100.00;96295.84;4954765;28;20132;-73
2022/08/05 02:26:58;;;;;;;10.55;5.57;;;;;;;19.52;100.00;96295.63;4972449;28;20089;-73
2022/08/05 02:29:27;;;;;;;8.90;5.30;;;;;;;19.62;100.00;96305.50;4969371;28;20045;-73
2022/08/05 02:31:56;;;;;;;12.43;5.22;;;;;;;19.67;100.00;96302.63;4972457;28;20486;-73
2022/08/05 02:34:23;;;;;;;9.32;5.63;;;;;;;19.67;100.00;96317.00;4972006;28;20038;-73
2022/08/05 02:36:54;;;;;;;10.88;5.63;;;;;;;19.61;100.00;96323.69;4973396;28;20030;-73
2022/08/05 02:39:21;;;;;;;10.02;5.20;;;;;;;19.62;100.00;96325.28;4972239;28;20042;-73
2022/08/05 02:41:49;;;;;;;10.15;5.28;;;;;;;19.59;100.00;96308.81;4954918;28;20370;-73
2022/08/05 02:44:16;;;;;;;9.70;5.68;;;;;;;19.56;100.00;96309.41;4969274;28;20042;-73
2022/08/05 02:46:45;;;;;;;9.45;5.40;;;;;;;19.50;100.00;96316.84;4971435;28;20042;-73
2022/08/05 02:49:14;;;;;;;12.68;5.60;;;;;;;19.55;100.00;96318.66;4970513;28;20038;-73
2022/08/05 02:51:41;;;;;;;9.23;5.43;;;;;;;19.62;100.00;96329.91;4972391;28;20046;-73
2022/08/05 02:54:08;;;;;;;13.25;5.57;;;;;;;19.60;100.00;96340.25;4956380;28;20049;-73
2022/08/05 02:56:34;;;;;;;10.80;5.10;;;;;;;19.60;100.00;96357.34;4971554;28;20174;-73
2022/08/05 02:59:00;;;;;;;8.23;4.90;;;;;;;19.54;100.00;96393.03;4972261;28;21233;-73
2022/08/05 03:01:28;;;;;;;8.80;5.88;;;;;;;19.50;100.00;96436.25;4971942;28;20045;-73
2022/08/05 03:03:57;;;;;;;9.98;6.57;;;;;;;19.39;100.00;96486.44;4971438;28;20114;-73
2022/08/05 03:06:25;;;;;;;10.70;6.30;;;;;;;19.34;100.00;96509.03;4956950;28;20475;-73
2022/08/05 03:08:52;;;;;;;9.50;6.00;;;;;;;19.29;100.00;96501.00;4970811;28;20050;-73
2022/08/05 03:11:23;;;;;;;13.80;6.57;;;;;;;19.26;100.00;96527.94;4970366;28;20065;-73
2022/08/05 03:13:49;;;;;;;13.70;7.70;;;;;;;19.29;100.00;96565.31;4972949;28;20501;-73
2022/08/05 03:16:15;;;;;;;29.20;9.82;;;;;;;19.32;100.00;96586.41;4955010;28;20050;-73
2022/08/05 03:18:40;;;;;;;17.48;9.10;;;;;;;19.15;100.00;96587.81;4969754;28;20362;-73
2022/08/05 03:21:06;;;;;;;23.70;10.18;;;;;;;19.12;100.00;96577.53;4971855;28;20038;-73
2022/08/05 03:23:33;;;;;;;16.90;9.45;;;;;;;19.09;100.00;96577.34;4971281;28;20047;-73
2022/08/05 03:26:00;;;;;;;20.88;10.43;;;;;;;19.15;100.00;96582.38;4953598;28;20034;-73
2022/08/05 03:28:26;;;;;;;16.95;10.32;;;;;;;19.17;100.00;96585.59;4971595;28;20046;-73
2022/08/05 03:30:52;;;;;;;17.60;10.27;;;;;;;19.17;100.00;96584.78;4953526;28;20066;-73
2022/08/05 03:33:19;;;;;;;15.90;11.20;;;;;;;19.25;100.00;96577.88;4972314;28;20051;-73
2022/08/05 03:35:46;;;;;;;25.83;11.80;;;;;;;19.23;100.00;96551.06;4969385;28;20030;-73
2022/08/05 03:38:13;;;;;;;21.75;11.50;;;;;;;19.21;100.00;96562.19;4975459;28;20133;-73
2022/08/05 03:40:42;;;;;;;18.33;11.02;;;;;;;19.28;100.00;96574.53;4973893;28;20559;-73
2022/08/05 03:43:08;;;;;;;25.20;11.73;;;;;;;19.34;100.00;96581.50;4953035;28;20311;-73
2022/08/05 03:45:33;;;;;;;20.20;11.18;;;;;;;19.37;100.00;96578.16;4974574;28;20283;-73
2022/08/05 03:47:59;;;;;;;20.48;11.50;;;;;;;19.38;100.00;96564.31;4975430;28;20262;-73
2022/08/05 03:50:32;;;;;;;21.42;11.38;;;;;;;19.31;100.00;96568.53;4957695;28;20042;-73
2022/08/05 03:53:07;;;;;;;25.05;12.30;;;;;;;19.18;100.00;96573.63;4959499;28;20038;-73
2022/08/05 03:55:38;;;;;;;20.88;12.20;;;;;;;19.21;100.00;96583.88;4974764;28;20050;-73
2022/08/05 03:58:10;;;;;;;22.52;12.85;;;;;;;19.32;100.00;96570.94;4974766;28;20036;-73
2022/08/05 04:00:37;;;;;;;26.38;13.10;;;;;;;19.39;100.00;96573.25;4970997;28;20406;-73
2022/08/05 04:03:05;;;;;;;18.75;11.90;;;;;;;19.43;100.00;96569.63;4975676;28;20484;-73
2022/08/05 04:05:35;;;;;;;23.20;13.23;;;;;;;19.51;100.00;96578.97;4956914;28;20050;-73
2022/08/05 04:08:03;;;;;;;21.60;12.90;;;;;;;19.58;100.00;96573.97;4976254;28;20038;-73
2022/08/05 04:10:29;;;;;;;20.13;13.00;;;;;;;19.54;100.00;96548.53;4972817;28;20131;-73
2022/08/05 04:12:56;;;;;;;20.13;13.30;;;;;;;19.40;100.00;96531.44;4974996;28;20481;-73
2022/08/05 04:15:21;;;;;;;22.52;14.32;;;;;;;19.40;100.00;96539.59;4972629;28;20073;-73
2022/08/05 04:17:47;;;;;;;25.75;15.38;;;;;;;19.45;100.00;96547.59;4957593;28;20346;-73
2022/08/05 04:20:18;;;;;;;24.58;14.68;;;;;;;19.41;100.00;96549.34;4971144;28;20458;-73
2022/08/05 04:22:43;;;;;;;28.80;15.48;;;;;;;19.45;100.00;96547.59;4974217;28;20043;-73
2022/08/05 04:25:09;;;;;;;25.05;16.35;;;;;;;19.44;100.00;96533.22;4972291;28;20085;-73
2022/08/05 04:27:35;;;;;;;25.25;15.50;;;;;;;19.33;100.00;96523.72;4972638;28;20591;-73
2022/08/05 04:30:01;;;;;;;24.65;15.52;;;;;;;19.28;100.00;96510.25;4970560;28;20463;-73
2022/08/05 04:32:26;;;;;;;25.92;15.93;;;;;;;19.22;100.00;96495.16;4970428;28;20217;-73
2022/08/05 04:34:52;;;;;;;29.73;16.95;;;;;;;19.09;100.00;96485.97;4973513;28;20058;-73
2022/08/05 04:37:17;;;;;;;30.55;17.75;;;;;;;19.02;100.00;96472.00;4975611;28;20056;-73
2022/08/05 04:39:43;;;;;;;28.45;18.55;;;;;;;18.88;100.00;96449.50;4970774;28;20095;-73
2022/08/05 04:42:08;;;;;;;27.77;19.50;;;;;;;18.84;100.00;96427.63;4972778;28;20129;-73
2022/08/05 04:44:33;;;;;;;28.90;19.52;;;;;;;18.88;100.00;96442.16;4957916;28;20038;-73
2022/08/05 04:46:59;;;;;;;30.23;19.20;;;;;;;18.90;100.00;96471.69;4974436;28;20431;-73
2022/08/05 04:49:26;;;;;;;30.67;21.38;;;;;;;18.91;100.00;96470.59;4954978;28;20488;-73
2022/08/05 04:51:51;;;;;;;30.75;21.30;;;;;;;18.91;100.00;96470.59;4974280;28;20174;-73
2022/08/05 04:54:18;;;;;;;31.75;21.13;;;;;;;18.91;100.00;96479.53;4973527;28;20058;-73
2022/08/05 04:56:44;;;;;;;28.95;21.98;;;;;;;18.85;100.00;96477.22;4975049;28;20038;-73
2022/08/05 04:59:11;;;;;;;31.45;22.45;;;;;;;18.87;100.00;96467.69;4971464;28;20081;-73
2022/08/05 05:01:38;;;;;;;34.30;24.60;;;;;;;18.78;100.00;96441.56;4959482;28;20507;-73
2022/08/05 05:04:04;;;;;;;38.97;26.27;;;;;;;18.79;100.00;96424.22;4972912;28;20050;-73
2022/08/05 05:06:29;;;;;;;36.75;25.13;;;;;;;18.62;100.00;96425.59;4973697;28;20461;-73
2022/08/05 05:08:55;;;;;;;34.33;25.02;;;;;;;18.37;100.00;96470.22;4973491;28;20046;-73
2022/08/05 05:11:21;;;;;;;34.65;23.10;;;;;;;18.20;100.00;96479.97;4960380;28;20225;-73
2022/08/05 05:13:46;;;;;;;40.35;25.92;;;;;;;18.15;100.00;96488.19;4971997;28;20045;-73
2022/08/05 05:16:12;;;;;;;40.72;25.25;;;;;;;18.07;100.00;96490.47;4973584;28;20042;-73
2022/08/05 05:18:37;;;;;;;42.13;26.70;;;;;;;18.16;100.00;96465.44;4956566;28;20348;-73
2022/08/05 05:21:03;;;;;;;43.28;25.15;;;;;;;18.25;100.00;96423.03;4972909;28;20054;-73
2022/08/05 05:23:29;;;;;;;35.72;24.02;;;;;;;18.36;100.00;96391.94;4973715;28;20413;-73
2022/08/05 05:25:54;;;;;;;35.50;23.23;;;;;;;18.51;100.00;96407.91;4971964;28;20077;-73
2022/08/05 05:28:19;;;;;;;36.85;21.63;;;;;;;18.42;100.00;96425.16;4974046;28;20324;-73
2022/08/05 05:30:45;;;;;;;33.65;21.52;;;;;;;18.52;100.00;96438.50;4970967;28;20553;-73
2022/08/05 05:33:11;;;;;;;38.03;22.10;;;;;;;18.46;100.00;96454.06;4973094;28;20073;-73
2022/08/05 05:35:36;;;;;;;29.13;20.65;;;;;;;18.38;100.00;96454.75;4954220;28;20118;-73
2022/08/05 05:38:03;;;;;;;36.60;22.15;;;;;;;18.28;100.00;96455.72;4951637;28;20081;-73
2022/08/05 05:40:30;;;;;;;33.35;21.17;;;;;;;18.25;100.00;96458.22;4972284;28;20046;-73
2022/08/05 05:42:55;;;;;;;28.55;19.15;;;;;;;18.28;100.00;96493.63;4974647;28;20109;-73
2022/08/05 05:45:21;;;;;;;34.65;21.77;;;;;;;18.32;100.00;96497.38;4955685;28;20049;-73
2022/08/05 05:47:47;;;;;;;33.58;21.73;;;;;;;18.37;100.00;96491.06;4956876;28;20050;-73
2022/08/05 05:50:14;;;;;;;32.85;19.52;;;;;;;18.27;100.00;96488.53;4971199;28;20053;-73
2022/08/05 05:52:41;;;;;;;29.67;18.77;;;;;;;18.18;100.00;96477.56;4972551;28;20042;-73
2022/08/05 05:55:08;;;;;;;30.08;19.27;;;;;;;18.11;100.00;96482.56;4971022;28;20038;-73
2022/08/05 05:57:35;;;;;;;26.00;17.77;;;;;;;18.07;100.00;96471.53;4971699;28;20045;-73
2022/08/05 06:00:01;;;;;;;26.73;19.20;;;;;;;18.06;100.00;96464.50;4970255;28;20042;-73
2022/08/05 06:02:26;;;;;;;32.53;21.00;;;;;;;18.10;100.00;96457.38;4952324;28;20050;-73
2022/08/05 06:04:52;;;;;;;35.55;22.70;;;;;;;18.15;100.00;96455.69;4971936;28;20409;-73
2022/08/05 06:07:17;;;;;;;27.98;19.75;;;;;;;18.17;100.00;96458.91;4973664;28;20088;-73
2022/08/05 06:09:43;;;;;;;31.88;18.70;;;;;;;18.12;100.00;96438.13;4970818;28;20070;-73
2022/08/05 06:12:08;;;;;;;28.65;18.50;;;;;;;18.21;100.00;96430.13;4972214;28;20069;-73
2022/08/05 06:14:34;;;;;;;26.33;18.30;;;;;;;18.29;100.00;96426.75;4972658;28;20060;-73
2022/08/05 06:17:00;;;;;;;23.55;13.25;;;;;;;18.25;100.00;96413.00;4976121;28;20042;-73
2022/08/05 06:19:26;;;;;;;29.20;17.05;;;;;;;18.42;100.00;96427.84;4956070;28;20357;-73
2022/08/05 06:21:52;;;;;;;22.25;15.57;;;;;;;18.51;100.00;96420.63;4973970;28;20585;-73
2022/08/05 06:24:19;;;;;;;23.10;15.75;;;;;;;18.73;100.00;96441.66;4956844;28;20049;-73
2022/08/05 06:26:45;;;;;;;21.85;14.50;;;;;;;18.95;100.00;96452.63;4955711;28;20093;-73
2022/08/05 06:29:10;;;;;;;21.25;14.38;;;;;;;19.26;100.00;96468.25;4973795;28;20065;-73
2022/08/05 06:31:37;;;;;;;21.50;14.35;;;;;;;19.49;100.00;96478.06;4956427;28;20043;-73
2022/08/05 06:34:05;;;;;;;19.77;12.52;;;;;;;19.69;100.00;96482.28;4972582;28;20049;-73
2022/08/05 06:36:30;;;;;;;20.70;13.68;;;;;;;19.80;100.00;96470.06;4974002;28;20065;-73
2022/08/05 06:38:56;;;;;;;19.80;14.73;;;;;;;20.00;100.00;96471.53;4972909;28;20489;-73
2022/08/05 06:41:21;;;;;;;22.88;14.85;;;;;;;20.09;100.00;96472.38;4973583;28;20050;-73
2022/08/05 06:43:47;;;;;;;20.67;13.50;;;;;;;20.14;100.00;96490.44;4956888;28;20054;-73
2022/08/05 06:46:14;;;;;;;21.10;13.55;;;;;;;20.06;100.00;96491.19;4972916;28;20050;-74
2022/08/05 06:48:39;;;;;;;21.52;14.13;;;;;;;19.81;100.00;96496.09;4971622;28;20105;-73
2022/08/05 06:51:05;;;;;;;22.50;13.55;;;;;;;19.66;100.00;96483.69;4972759;28;20050;-73
2022/08/05 06:53:30;;;;;;;19.65;14.07;;;;;;;19.56;100.00;96483.88;4972788;28;20090;-73
2022/08/05 06:55:57;;;;;;;19.40;12.52;;;;;;;19.44;100.00;96475.44;4969369;28;20049;-73
2022/08/05 06:58:23;;;;;;;17.67;13.32;;;;;;;19.24;100.00;96490.28;4970920;28;20042;-73
2022/08/05 07:00:49;;;;;;;21.42;13.90;;;;;;;19.38;100.00;96503.81;4971636;28;20374;-73
2022/08/05 07:03:14;;;;;;;20.17;13.43;;;;;;;19.65;100.00;96511.13;4973355;28;20177;-73
2022/08/05 07:05:40;;;;;;;21.83;13.52;;;;;;;19.90;100.00;96490.75;4969917;28;20069;-73
2022/08/05 07:08:06;;;;;;;19.70;13.10;;;;;;;20.18;100.00;96494.97;4971685;28;20049;-73
2022/08/05 07:10:31;;;;;;;21.42;12.25;;;;;;;20.66;100.00;96482.66;4967755;28;20446;-73
2022/08/05 07:18:25;;;;;;;18.30;12.52;;;;;;;20.83;100.00;96472.66;4973089;28;20045;-73
2022/08/05 07:20:50;;;;;;;18.55;11.80;;;;;;;20.85;100.00;96481.31;4969759;28;20060;-73
2022/08/05 07:23:16;;;;;;;19.90;12.57;;;;;;;20.71;100.00;96493.41;4973776;28;20053;-73
2022/08/05 07:25:41;;;;;;;20.90;12.02;;;;;;;20.88;100.00;96487.25;4969657;28;20389;-73
2022/08/05 07:28:07;;;;;;;18.17;11.75;;;;;;;20.88;100.00;96484.53;4953312;28;20758;-73
2022/08/05 07:30:34;;;;;;;18.25;11.80;;;;;;;20.75;100.00;96483.50;4951942;28;20145;-73
2022/08/05 07:33:04;;;;;;;19.17;12.75;;;;;;;20.71;100.00;96483.34;4973848;28;20046;-73
2022/08/05 07:35:29;;;;;;;17.38;12.02;;;;;;;20.71;100.00;96491.50;4954183;28;20145;-73
2022/08/05 07:37:55;;;;;;;19.60;11.90;;;;;;;20.70;100.00;96480.91;4972537;28;20067;-73
2022/08/05 07:40:21;;;;;;;23.83;12.48;;;;;;;20.98;100.00;96478.78;4971120;28;20153;-73
2022/08/05 07:42:47;;;;;;;21.08;12.23;;;;;;;21.27;100.00;96473.63;4974792;28;20121;-73
2022/08/05 07:45:12;;;;;;;18.27;11.80;;;;;;;21.47;100.00;96471.41;4954310;28;20109;-73
2022/08/05 07:47:38;;;;;;;23.98;13.50;;;;;;;21.68;100.00;96464.25;4970994;28;20130;-73
2022/08/05 07:50:04;;;;;;;21.17;12.20;;;;;;;21.97;100.00;96463.63;4971746;28;20090;-73
2022/08/05 07:52:30;;;;;;;17.33;10.60;;;;;;;22.16;100.00;96464.09;4971973;28;20089;-73
2022/08/05 07:54:56;;;;;;;16.58;10.95;;;;;;;22.43;100.00;96476.56;4972798;28;20221;-73
2022/08/05 07:57:21;;;;;;;17.25;10.82;;;;;;;22.74;100.00;96479.06;4954067;28;20597;-73
2022/08/05 07:59:47;;;;;;;17.02;11.55;;;;;;;22.63;100.00;96471.53;4953522;28;20034;-73
2022/08/05 08:02:12;;;;;;;20.95;12.45;;;;;;;21.96;100.00;96478.38;4972676;28;20096;-74
2022/08/05 08:04:37;;;;;;;17.50;11.05;;;;;;;21.90;100.00;96494.06;4969879;28;20428;-74
2022/08/05 08:07:03;;;;;;;20.50;11.07;;;;;;;22.21;100.00;96493.91;4974321;28;20065;-74
2022/08/05 08:09:28;;;;;;;18.85;11.23;;;;;;;22.14;100.00;96503.69;4971217;28;20134;-74
2022/08/05 08:11:54;;;;;;;19.15;10.55;;;;;;;22.29;100.00;96505.94;4972922;28;20081;-74
2022/08/05 08:14:19;;;;;;;15.60;9.57;;;;;;;22.11;100.00;96517.97;4971564;28;20061;-74
2022/08/05 08:16:45;;;;;;;14.45;10.10;;;;;;;21.94;100.00;96526.91;4971570;28;20112;-74
2022/08/05 08:19:11;;;;;;;15.95;9.57;;;;;;;21.66;100.00;96524.47;4967958;28;20591;-74
2022/08/05 08:21:36;;;;;;;15.80;9.85;;;;;;;21.50;100.00;96536.13;4969793;28;20525;-73
2022/08/05 08:24:02;;;;;;;15.07;9.90;;;;;;;21.37;100.00;96541.38;4974977;28;20790;-74
2022/08/05 08:26:28;;;;;;;16.42;9.98;;;;;;;21.44;100.00;96535.47;4974965;28;20038;-74
2022/08/05 08:28:53;;;;;;;19.90;10.57;;;;;;;21.27;100.00;96538.94;4974652;28;20513;-74
2022/08/05 08:31:19;;;;;;;17.70;10.05;;;;;;;21.30;100.00;96535.59;4973429;28;20463;-74
2022/08/05 08:33:45;;;;;;;18.85;11.02;;;;;;;21.33;100.00;96534.16;4975773;28;20034;-74
2022/08/05 08:36:10;;;;;;;17.33;10.70;;;;;;;21.14;100.00;96539.81;4959396;28;20038;-74
2022/08/05 08:38:36;;;;;;;17.73;10.40;;;;;;;21.05;100.00;96544.41;4974677;28;20042;-74
2022/08/05 08:41:08;;;;;;;21.63;12.55;;;;;;;20.97;100.00;96551.44;4975916;28;20045;-74
2022/08/05 08:43:36;;;;;;;18.48;12.48;;;;;;;20.96;100.00;96547.09;4976725;28;20206;-74
2022/08/05 08:46:03;;;;;;;21.58;12.75;;;;;;;21.18;100.00;96562.56;4975917;28;20170;-74
2022/08/05 08:48:30;;;;;;;23.55;13.55;;;;;;;21.22;100.00;96557.28;4975206;28;20077;-74
2022/08/05 08:50:55;;;;;;;20.90;12.70;;;;;;;21.85;100.00;96553.31;4973552;28;20524;-74
2022/08/05 08:53:23;;;;;;;18.45;13.15;;;;;;;21.96;100.00;96549.19;4976685;28;20340;-74
2022/08/05 08:55:49;;;;;;;17.65;12.02;;;;;;;21.58;100.00;96551.69;4974706;28;20088;-74
2022/08/05 08:58:16;;;;;;;19.30;13.02;;;;;;;21.21;100.00;96550.25;4975623;28;20038;-74
2022/08/05 09:00:42;;;;;;;15.68;11.32;;;;;;;20.83;100.00;96573.25;4976128;28;20042;-74
2022/08/05 09:03:08;;;;;;;20.80;11.70;;;;;;;20.73;100.00;96570.81;4958912;28;20105;-74
2022/08/05 09:05:34;;;;;;;16.30;12.73;;;;;;;20.82;100.00;96560.78;4973681;28;20030;-74
2022/08/05 09:07:59;;;;;;;20.65;12.75;;;;;;;21.17;100.00;96563.69;4977725;28;20584;-74
2022/08/05 09:10:25;;;;;;;21.48;15.43;;;;;;;21.64;100.00;96561.31;4974464;28;20044;-74
2022/08/05 09:12:50;;;;;;;19.02;13.07;;;;;;;22.11;100.00;96532.41;4975946;28;20048;-74
2022/08/05 09:15:16;;;;;;;19.58;13.52;;;;;;;22.38;100.00;96519.56;4974110;28;20494;-74
2022/08/05 09:17:42;;;;;;;21.55;14.32;;;;;;;22.63;100.00;96507.00;4955983;28;20041;-74
2022/08/05 09:20:08;;;;;;;19.40;14.40;;;;;;;22.94;100.00;96502.09;4975747;28;20042;-74
2022/08/05 09:23:07;;;;;;;20.85;14.25;;;;;;;22.70;100.00;96504.56;4976403;28;20269;-74
2022/08/05 09:25:33;;;;;;;18.60;14.65;;;;;;;21.97;100.00;96526.28;4973956;28;20039;-74
2022/08/05 09:28:23;;;;;;;23.55;16.00;;;;;;;21.46;100.00;96540.59;4976656;28;20034;-74
2022/08/05 09:30:55;;;;;;;30.30;17.05;;;;;;;21.22;100.00;96533.59;4957675;28;20046;-74
2022/08/05 09:33:22;;;;;;;28.88;20.15;;;;;;;21.04;100.00;96543.63;4974251;28;20073;-74
2022/08/05 09:36:01;;;;;;;32.17;21.40;;;;;;;;;;4972781;28;20034;-74
2022/08/05 09:38:28;;;;;;;32.75;21.20;;;;;;;20.88;100.00;96560.66;4940921;28;20053;-74
2022/08/05 09:41:01;;;;;;;30.75;22.27;;;;;;;20.70;100.00;96571.44;4956958;28;20277;-74
2022/08/05 09:43:31;;;;;;;32.40;22.85;;;;;;;20.46;100.00;96576.38;4975108;28;20322;-74
2022/08/05 09:45:59;;;;;;;30.38;21.20;;;;;;;20.49;100.00;96570.34;4973073;28;20050;-74
2022/08/05 09:48:28;;;;;;;33.65;22.40;;;;;;;20.79;100.00;96574.22;4974010;28;20696;-74
2022/08/05 09:50:55;;;;;;;35.05;23.33;;;;;;;;;;4972491;28;20514;-74
2022/08/05 09:53:21;;;;;;;40.45;25.33;;;;;;;20.68;100.00;96562.78;4976607;28;20038;-74
2022/08/05 09:55:51;;;;;;;38.50;24.80;;;;;;;20.47;100.00;96573.38;4974004;28;20053;-75
2022/08/05 09:58:17;;;;;;;34.40;22.80;;;;;;;20.55;100.00;96572.63;4971582;28;20277;-74
2022/08/05 10:00:57;;;;;;;34.67;23.85;;;;;;;20.45;100.00;96561.19;4972431;28;20083;-74
2022/08/05 10:03:24;;;;;;;;;;;;;;;20.39;100.00;96570.53;4951045;28;20705;-73
2022/08/05 10:06:08;;;;;;;37.05;24.02;;;;;;;20.04;100.00;96568.34;4970272;28;19992;-74
2022/08/05 10:08:35;;;;;;;35.42;22.15;;;;;;;20.12;100.00;96566.00;4974340;28;20178;-74
2022/08/05 10:11:03;;;;;;;34.88;23.23;;;;;;;20.02;100.00;96564.34;4957951;28;20050;-74
2022/08/05 10:13:35;;;;;;;34.47;21.35;;;;;;;19.95;100.00;96566.69;4956370;28;20041;-75
2022/08/05 10:16:02;;;;;;;26.83;18.80;;;;;;;19.79;100.00;96578.97;4971756;28;20058;-74
2022/08/05 10:18:30;;;;;;;29.15;19.85;;;;;;;19.70;100.00;96593.25;4953629;28;20724;-74
2022/08/05 10:21:02;;;;;;;27.50;17.17;;;;;;;19.68;100.00;96602.81;4955277;28;20045;-74
2022/08/05 10:23:31;;;;;;;25.25;17.23;;;;;;;19.60;100.00;96600.78;4959240;28;20042;-73
2022/08/05 10:26:11;;;;;;;25.55;17.15;;;;;;;19.65;100.00;96601.50;4970629;28;20042;-74
2022/08/05 10:28:37;;;;;;;27.35;17.70;;;;;;;19.75;100.00;96600.47;4970861;28;20389;-74
2022/08/05 10:31:04;;;;;;;25.08;16.83;;;;;;;19.71;100.00;96608.44;4948014;28;20149;-74
2022/08/05 10:33:32;;;;;;;27.38;17.95;;;;;;;19.90;100.00;96613.72;4973880;28;20073;-75
2022/08/05 10:35:59;;;;;;;20.88;15.88;;;;;;;19.72;100.00;96610.03;4953928;28;20062;-73
2022/08/05 10:38:27;;;;;;;23.38;15.90;;;;;;;19.55;100.00;96611.75;4951059;28;20134;-73
2022/08/05 10:41:12;;;;;;;24.30;16.73;;;;;;;19.78;100.00;96613.47;4955801;28;20564;-73
2022/08/05 10:43:49;;;;;;;25.20;16.20;;;;;;;20.55;100.00;96607.16;4972681;28;20042;-73
2022/08/05 10:46:17;;;;;;;20.15;13.30;;;;;;;22.17;100.00;96590.25;4626840;28;10000269;-73
2022/08/05 10:48:45;;;;;;;19.83;13.43;;;;;;;22.94;100.00;96586.69;4624465;28;9999684;-74
2022/08/05 10:51:13;;;;;;;20.38;12.85;;;;;;;23.14;100.00;96585.19;4969445;28;20046;-74
2022/08/05 10:53:52;;;;;;;19.52;13.55;;;;;;;23.08;100.00;96576.38;4972859;28;20042;-74
2022/08/05 10:56:20;;;;;;;18.17;10.98;;;;;;;24.08;100.00;96583.13;4971440;28;20046;-74
2022/08/05 10:59:03;;;;;;;16.48;10.15;;;;;;;23.26;100.00;96582.56;4972068;28;20395;-74
2022/08/05 11:01:43;;;;;;;17.10;11.43;;;;;;;22.24;100.00;96596.81;4954194;28;20117;-74
2022/08/05 11:04:14;;;;;;;16.45;10.57;;;;;;;21.75;100.00;96595.28;4971438;28;20380;-74
2022/08/05 11:07:03;;;;;;;14.93;9.52;;;;;;;21.34;100.00;96618.22;4970677;28;20054;-75
2022/08/05 11:09:38;;;;;;;13.50;9.82;;;;;;;21.53;100.00;96606.28;4969121;28;20594;-75
2022/08/05 11:12:04;;;;;;;14.35;9.75;;;;;;;21.92;100.00;96606.22;4970189;28;20437;-75
2022/08/05 11:14:35;;;;;;;17.85;9.73;;;;;;;21.61;100.00;96605.50;4970269;28;20275;-75
2022/08/05 11:17:23;;;;;;;16.92;10.20;;;;;;;22.43;100.00;96615.59;4969931;28;20038;-75
2022/08/05 11:19:48;;;;;;;15.50;9.38;;;;;;;22.97;100.00;96613.34;4968147;28;20441;-75
2022/08/05 11:22:37;;;;;;;14.50;9.52;;;;;;;22.32;100.00;96617.03;4953400;28;20042;-74